Date,TemperatureHighF,TemperatureAvgF,TemperatureLowF,DewpointHighF,DewpointAvgF,DewpointLowF,HumidityHigh,HumidityAvg,HumidityLow,PressureMaxIn,PressureMinIn,WindSpeedMaxMPH,WindSpeedAvgMPH,GustSpeedMaxMPH,PrecipitationSumIn
2013-1-1,40,33,29,36,29,24,89,84,76,30.49,30.34,1,0,4,0.00
2013-1-2,41,34,30,35,28,24,88,76,67,30.34,30.17,1,0,5,0.00
2013-1-3,42,35,28,33,28,24,88,78,56,30.19,30.08,1,0,8,0.17
2013-1-4,48,42,37,44,36,32,88,80,74,30.30,30.15,1,0,4,0.09
2013-1-5,44,42,40,40,37,34,88,84,78,30.19,30.10,1,0,7,0.07
2013-1-6,46,42,39,42,37,33,88,83,75,30.17,29.97,1,0,4,0.03
2013-1-7,50,46,41,47,42,36,88,84,77,30.14,29.80,1,0,12,0.03
2013-1-8,52,47,42,48,42,37,88,83,74,30.14,29.72,2,0,12,0.47
2013-1-9,50,42,37,45,37,32,88,84,75,29.93,29.65,1,0,6,0.96
2013-1-10,40,37,32,37,33,27,88,86,78,30.11,29.92,0,0,2,0.01
2013-1-11,34,31,28,31,27,23,89,84,77,30.32,30.10,2,0,6,0.00
2013-1-12,35,29,26,31,25,22,89,84,78,30.43,30.30,1,0,6,0.00
2013-1-13,36,29,24,30,25,21,89,85,73,30.48,30.42,0,0,2,0.00
2013-1-14,37,33,30,32,30,27,89,87,81,30.56,30.46,0,0,3,0.01
2013-1-15,42,35,31,36,31,26,89,84,77,30.69,30.55,1,0,5,0.00
2013-1-16,39,33,30,35,28,25,89,81,75,30.67,30.50,0,0,2,0.00
2013-1-17,37,34,30,31,28,25,83,78,76,30.51,30.28,0,0,2,0.00
2013-1-18,39,36,33,32,29,27,82,78,76,30.33,30.25,1,0,6,0.00
2013-1-19,36,34,33,32,29,26,86,80,76,30.37,30.32,0,0,3,0.00
2013-1-20,38,35,32,33,29,26,87,79,76,30.38,30.25,0,0,3,0.01
2013-1-21,37,35,32,31,29,27,84,78,76,30.27,30.12,0,0,2,0.00
2013-1-22,39,35,32,36,30,26,89,81,76,30.13,29.89,0,0,1,0.00
2013-1-23,43,41,37,40,37,32,89,85,79,30.12,29.82,1,0,4,0.17
2013-1-24,46,42,36,41,37,31,88,84,76,30.20,30.04,0,0,4,0.14
2013-1-25,51,44,39,47,39,33,89,80,74,30.04,29.91,0,0,2,0.11
2013-1-26,47,42,39,43,37,33,89,83,75,30.02,29.86,0,0,5,0.16
2013-1-27,43,41,40,40,38,36,88,87,83,30.05,29.98,1,0,7,0.03
2013-1-28,44,42,39,40,36,33,88,82,78,30.08,29.99,0,0,3,0.22
2013-1-29,48,45,42,42,39,36,86,78,75,30.33,30.08,0,0,5,0.23
2013-1-30,49,47,45,42,40,39,81,77,75,30.36,30.30,0,0,4,0.13
2013-1-31,50,47,46,46,42,39,89,80,76,30.38,30.28,0,0,5,0.08
2013-2-1,49,45,41,46,40,35,88,82,75,30.39,30.31,1,0,5,0.01
2013-2-2,44,42,40,40,37,34,89,83,76,30.37,30.24,1,0,7,0.00
2013-2-3,49,44,39,46,39,34,89,83,76,30.29,30.20,0,0,4,0.05
2013-2-4,51,46,44,47,42,38,88,85,79,30.16,29.87,0,0,5,0.01
2013-2-5,52,46,43,48,42,40,88,86,80,29.93,29.82,1,0,7,0.16
2013-2-6,52,46,43,46,42,40,88,86,76,30.04,29.77,1,0,7,0.05
2013-2-7,49,42,35,43,38,31,88,85,74,30.17,29.77,1,0,7,0.06
2013-2-8,45,40,35,40,35,30,88,82,76,30.29,30.17,1,0,5,0.01
2013-2-9,47,43,40,42,38,36,88,85,78,30.32,30.24,0,0,2,0.01
2013-2-10,47,42,35,42,37,31,89,84,76,30.36,30.31,0,0,3,0.01
2013-2-11,48,44,39,44,39,34,88,85,77,30.34,30.31,0,0,4,0.01
2013-2-12,51,47,44,47,43,40,88,85,77,30.38,30.27,1,0,10,0.01
2013-2-13,50,46,43,45,42,39,88,86,81,30.49,30.27,1,0,7,0.01
2013-2-14,50,46,43,47,42,39,88,86,82,30.54,30.48,0,0,4,0.03
2013-2-15,52,44,39,47,39,34,88,83,76,30.53,30.16,1,0,6,0.00
2013-2-16,55,45,38,48,40,32,88,81,71,30.19,30.09,1,0,7,0.00
2013-2-17,48,43,40,42,38,35,88,84,73,30.23,30.09,0,0,4,0.01
2013-2-18,48,42,38,42,37,33,88,84,78,30.09,29.75,1,0,7,0.02
2013-2-19,50,41,35,40,35,31,89,80,63,30.00,29.72,2,0,8,0.01
2013-2-20,46,40,34,42,36,29,89,85,77,30.04,29.97,1,0,7,0.01
2013-2-21,45,43,40,42,39,34,88,86,79,30.06,29.99,1,0,15,0.01
2013-2-22,46,42,37,42,39,34,89,88,85,30.04,29.68,2,0,13,0.00
2013-2-23,51,43,39,43,38,36,89,83,69,30.36,29.89,2,0,6,0.01
2013-2-24,49,44,40,41,38,36,88,80,73,30.36,29.93,1,0,8,0.00
2013-2-25,52,43,37,43,38,34,88,82,57,30.29,29.87,1,0,9,0.01
2013-2-26,50,43,38,41,37,34,88,79,61,30.34,30.18,1,0,7,0.00
2013-2-27,50,44,38,45,40,33,87,83,75,30.29,30.19,0,0,4,0.00
2013-2-28,52,48,43,46,42,37,85,79,75,30.31,30.17,0,0,6,0.01
2013-3-1,60,54,51,55,49,45,88,84,77,30.34,30.26,1,0,8,0.01
2013-3-2,59,50,40,52,46,37,88,85,75,30.26,30.04,2,0,9,1.20
2013-3-3,51,41,33,45,35,29,88,79,58,30.29,30.18,1,0,7,0.02
2013-3-4,54,40,31,37,31,26,89,71,40,30.29,29.91,2,0,8,0.01
2013-3-5,51,43,36,44,38,30,87,80,59,29.91,29.71,1,0,5,0.00
2013-3-6,45,43,40,41,39,36,88,86,80,29.89,29.56,1,0,6,0.36
2013-3-7,53,45,38,47,40,33,88,81,73,30.07,29.89,0,0,5,0.30
2013-3-8,52,42,36,44,36,31,88,81,72,30.23,30.07,1,0,5,0.01
2013-3-9,54,42,33,46,36,28,87,79,63,30.48,30.23,1,0,5,0.01
2013-3-10,48,43,36,44,39,32,88,85,82,30.49,30.41,0,0,5,0.00
2013-3-11,53,47,40,47,42,35,88,83,75,30.43,30.15,0,0,3,0.00
2013-3-12,56,52,48,51,48,42,87,85,80,30.15,30.06,1,0,8,0.01
2013-3-13,54,52,50,50,47,44,87,85,79,30.19,30.08,1,0,8,0.00
2013-3-14,54,50,49,50,45,42,88,82,76,30.14,30.01,0,0,5,0.00
2013-3-15,60,53,48,54,47,42,88,82,74,30.20,30.12,0,0,5,0.01
2013-3-16,53,47,40,49,43,36,88,86,77,30.12,29.86,1,0,8,0.00
2013-3-17,54,44,36,43,37,33,89,79,60,30.18,29.97,1,0,7,0.01
2013-3-18,56,45,39,45,38,35,88,77,53,30.22,30.10,2,0,8,0.00
2013-3-19,57,43,35,45,37,31,88,79,42,30.21,29.58,1,0,7,0.00
2013-3-20,55,46,38,49,42,34,88,83,74,30.01,29.38,1,0,14,1.15
2013-3-21,50,41,36,41,37,32,88,84,68,30.21,30.01,2,0,8,0.00
2013-3-22,47,38,33,38,32,29,88,80,60,30.37,30.20,1,0,8,0.01
2013-3-23,52,40,33,40,32,28,89,76,48,30.39,30.28,1,0,5,0.06
2013-3-24,56,42,31,39,34,27,88,74,48,30.29,30.11,1,0,5,0.00
2013-3-25,61,47,33,39,35,30,88,65,38,30.12,29.91,1,0,5,0.00
2013-3-26,54,48,45,43,41,38,78,75,67,29.96,29.94,0,0,2,0.00
2013-3-27,59,49,43,50,43,39,86,80,61,29.98,29.92,0,0,3,0.02
2013-3-28,63,51,42,53,44,37,87,77,62,30.13,29.97,0,0,4,0.04
2013-3-29,65,52,43,52,44,38,88,76,51,30.23,30.13,1,0,4,0.00
2013-3-30,66,52,41,51,44,36,88,75,52,30.24,30.05,2,0,9,0.00
2013-3-31,69,54,42,50,44,37,88,72,46,30.06,29.89,2,0,7,0.00
2013-4-1,63,53,45,53,47,41,88,81,66,30.15,29.95,1,0,5,0.00
2013-4-2,58,53,49,50,48,45,87,82,73,30.18,30.13,0,0,5,0.00
2013-4-3,63,53,44,52,46,40,88,76,56,30.18,29.93,1,0,5,0.00
2013-4-4,56,52,48,52,48,44,87,86,82,29.93,29.63,1,0,7,0.35
2013-4-5,61,54,49,56,49,44,88,84,79,29.85,29.71,1,0,8,0.46
2013-4-6,54,49,45,50,45,41,88,85,78,29.92,29.68,1,0,8,0.34
2013-4-7,48,44,42,44,40,36,88,84,76,29.88,29.49,1,0,7,0.80
2013-4-8,58,48,42,51,43,37,87,81,67,30.26,29.88,0,0,4,0.04
2013-4-9,57,49,42,48,43,36,88,79,67,30.34,30.17,1,0,4,0.00
2013-4-10,63,53,47,56,47,43,86,80,68,30.24,29.92,1,0,10,0.21
2013-4-11,47,46,46,43,42,42,87,86,85,30.27,30.24,0,0,6,0.00
2013-6-2,68,40,0,53,49,43,77,43,56,30.11,0.00,0,0,0,0.00
2013-6-3,69,60,52,58,52,48,88,75,55,30.17,30.09,5,2,11,0.00
2013-6-4,75,65,56,59,54,49,84,68,46,30.18,30.04,7,3,10,0.00
2013-6-5,76,66,56,62,55,47,80,67,52,30.13,30.05,9,1,9,0.00
2013-6-6,78,66,57,59,53,45,82,64,40,30.11,30.02,11,1,17,0.00
2013-6-7,72,63,57,57,51,44,76,66,47,30.19,30.06,5,1,15,0.00
2013-6-8,68,60,55,54,50,48,78,71,55,30.24,30.13,2,0,7,0.00
2013-6-9,66,59,54,53,49,46,81,71,56,30.17,30.06,4,1,9,0.00
2013-6-10,71,60,52,51,48,45,79,66,42,30.09,29.91,3,1,11,0.00
2013-6-11,69,59,51,49,47,44,81,65,47,30.16,29.99,5,1,17,0.00
2013-6-12,68,59,54,51,48,44,81,68,44,30.20,30.15,5,1,17,0.00
2013-6-13,68,60,54,52,50,45,83,69,45,30.27,30.19,2,0,9,0.00
2013-6-14,67,60,55,52,50,47,79,70,56,30.29,30.09,3,0,11,0.00
2013-6-15,76,64,53,58,52,48,83,67,44,30.09,29.95,3,1,7,0.00
2013-6-16,76,65,55,59,53,50,83,67,48,30.14,30.03,4,1,13,0.00
2013-6-17,79,65,58,56,53,49,82,66,37,30.14,29.92,6,1,17,0.03
2013-6-18,74,63,56,54,50,43,83,65,35,30.03,29.91,5,1,17,0.02
2013-6-19,66,60,55,56,52,49,82,74,58,30.06,29.97,3,0,12,0.05
2013-6-20,63,58,55,53,51,50,83,79,68,30.16,30.01,3,1,13,0.08
2013-6-21,70,60,54,55,52,47,84,73,55,30.21,30.16,2,0,6,0.02
2013-6-22,79,65,53,59,53,46,86,67,42,30.17,29.88,2,0,7,0.00
2013-6-23,69,65,61,63,58,54,82,78,70,29.89,29.63,2,0,7,0.18
2013-6-24,72,63,58,57,54,52,84,73,52,29.75,29.62,4,1,12,0.10
2013-6-25,77,63,58,59,55,50,83,75,46,29.91,29.72,5,0,20,0.55
2013-6-26,72,64,58,62,56,50,84,75,64,30.12,29.90,4,0,14,0.09
2013-6-27,70,65,61,63,59,54,83,81,75,30.24,30.09,2,0,4,0.12
2013-6-28,91,73,62,68,62,56,83,69,43,30.23,30.05,3,0,12,0.00
2013-6-29,87,74,67,65,62,58,81,65,45,30.14,30.01,2,0,8,0.00
2013-6-30,91,77,64,68,63,58,82,65,40,30.04,29.87,3,0,7,0.00
2013-7-1,91,77,70,68,64,59,77,63,44,30.05,29.93,4,0,8,0.00
2013-7-2,80,71,62,64,58,52,82,65,38,30.14,30.05,3,1,8,0.00
2013-7-3,78,69,62,59,53,46,67,57,45,30.19,30.06,9,3,13,0.00
2013-7-4,69,64,59,56,54,50,85,71,58,30.18,30.07,9,2,13,0.00
2013-7-5,75,65,58,57,55,53,86,70,53,30.09,29.98,5,1,13,0.00
2013-7-6,78,67,56,58,55,51,83,68,42,30.04,29.89,6,1,10,0.00
2013-7-7,73,66,59,60,57,54,82,73,57,30.01,29.91,4,1,9,0.00
2013-7-8,76,65,57,62,56,53,87,74,52,30.15,29.99,5,2,11,0.00
2013-7-9,81,71,62,63,58,52,87,65,41,30.16,30.01,8,3,12,0.00
2013-7-10,69,64,59,58,55,51,85,73,59,30.12,29.98,9,3,13,0.00
2013-7-11,68,61,56,55,50,47,79,67,50,30.14,30.03,12,4,18,0.00
2013-7-12,67,61,57,54,51,47,80,70,61,30.14,30.06,6,2,11,0.00
2013-7-13,73,64,51,57,51,46,83,66,45,30.25,30.13,9,3,13,0.00
2013-7-14,81,68,57,57,51,45,80,56,31,30.17,30.00,8,2,10,0.00
2013-7-15,76,68,60,58,54,49,75,61,43,30.08,29.91,12,5,17,0.00
2013-7-16,82,73,64,64,56,48,69,54,38,29.93,29.81,10,5,13,0.00
2013-7-17,74,66,60,59,57,54,87,72,54,30.22,29.90,4,1,12,0.04
2013-7-18,77,66,57,62,57,51,82,72,56,30.26,30.13,2,0,6,0.00
2013-7-19,77,66,59,63,58,52,82,74,55,30.20,30.05,7,2,10,0.00
2013-7-20,74,64,57,62,57,55,92,79,59,30.14,29.99,5,1,9,0.00
2013-7-21,73,64,56,60,57,54,94,79,60,30.04,29.94,6,1,10,0.00
2013-7-22,79,66,58,62,57,51,91,74,50,30.11,29.98,3,0,8,0.00
2013-7-23,83,71,62,62,58,54,82,65,38,30.11,30.00,3,1,8,0.00
2013-7-24,83,72,60,63,57,48,81,62,40,30.10,30.01,3,0,7,0.00
2013-7-25,80,71,59,63,56,52,81,61,41,30.14,30.06,8,2,10,0.00
2013-7-26,80,70,61,60,55,45,81,58,32,30.20,30.10,11,4,15,0.00
2013-7-27,75,66,57,56,52,46,82,61,40,30.20,30.03,8,2,12,0.00
2013-7-28,68,61,55,56,53,51,89,76,64,30.07,29.99,6,1,13,0.00
2013-7-29,73,64,56,58,54,51,85,72,54,30.05,29.98,5,1,9,0.00
2013-7-30,75,66,57,59,56,52,87,71,53,30.17,30.03,5,1,11,0.00
2013-7-31,69,64,57,62,58,54,92,81,71,30.16,30.03,6,1,15,0.00
2013-8-1,68,62,57,58,55,53,91,80,67,30.11,30.07,5,1,12,0.00
2013-8-2,63,61,59,59,57,54,92,85,78,30.17,30.10,3,1,10,0.05
2013-8-3,74,65,60,61,57,51,92,75,64,30.17,30.09,2,0,5,0.03
2013-8-4,80,69,61,65,60,55,82,72,53,30.10,29.96,3,1,7,0.00
2013-8-5,84,72,60,64,60,54,82,67,45,30.05,29.94,2,0,5,0.00
2013-8-6,87,72,58,62,57,53,82,62,35,30.04,29.92,2,0,6,0.00
2013-8-7,84,71,58,64,57,53,82,63,41,30.06,29.97,2,0,9,0.00
2013-8-8,82,68,58,64,58,53,89,71,49,30.08,29.96,3,1,10,0.00
2013-8-9,81,71,59,61,58,54,81,66,45,30.00,29.86,3,0,9,0.00
2013-8-10,78,68,60,64,60,54,82,74,61,30.06,29.93,4,1,12,0.06
2013-8-11,74,66,58,59,56,53,82,70,54,30.10,30.01,5,1,11,0.00
2013-8-12,79,68,61,59,56,53,80,66,46,30.12,30.03,3,0,12,0.00
2013-8-13,81,69,57,62,56,52,82,66,40,30.14,29.95,1,0,6,0.00
2013-8-14,80,69,61,63,58,54,89,69,42,30.01,29.94,0,0,0,0.03
2013-8-15,71,67,64,66,63,61,92,87,81,30.04,29.96,0,0,2,0.05
2013-8-16,85,72,64,64,60,46,91,70,27,30.05,29.97,5,0,12,0.00
2013-8-17,80,70,64,62,58,55,76,67,52,30.11,30.04,4,1,15,0.00
2013-8-18,79,68,61,62,58,53,81,69,51,30.17,30.10,5,1,15,0.00
2013-8-19,80,68,61,61,56,53,80,67,51,30.16,30.09,4,1,16,0.00
2013-8-20,75,67,61,58,54,51,75,64,50,30.21,30.10,3,1,12,0.00
2013-8-21,78,68,59,61,55,51,79,64,50,30.14,29.96,4,1,9,0.00
2013-8-22,80,71,59,60,56,53,81,60,42,29.99,29.83,2,0,6,0.00
2013-8-23,75,67,62,59,57,54,81,69,55,29.93,29.86,4,1,16,0.00
2013-8-24,77,67,62,58,56,52,82,69,43,29.96,29.87,6,0,9,0.00
2013-8-25,70,65,61,60,56,52,79,71,55,29.98,29.90,6,1,8,0.00
2013-8-26,74,66,62,61,57,52,82,75,47,30.00,29.89,4,0,14,0.06
2013-8-27,77,68,62,63,59,56,82,72,56,30.00,29.82,2,0,10,0.04
2013-8-28,78,69,62,65,60,53,82,72,58,29.94,29.87,1,0,5,0.10
2013-8-29,74,68,65,67,61,57,82,78,72,30.05,29.89,2,0,7,0.02
2013-8-30,76,68,61,62,58,52,93,71,45,30.19,30.05,8,2,11,0.00
2013-8-31,77,68,60,64,58,56,90,72,50,30.11,29.86,8,3,11,0.00
2013-9-1,79,70,61,62,58,55,88,69,47,29.93,29.82,5,1,9,0.00
2013-9-2,78,71,63,60,58,55,81,64,48,29.98,29.89,6,1,10,0.00
2013-9-3,74,67,64,64,61,58,92,82,66,30.07,29.98,5,1,7,0.16
2013-9-4,70,66,63,62,60,58,91,83,75,30.09,30.04,8,1,12,0.00
2013-9-5,67,63,62,62,58,53,95,83,73,30.08,29.96,3,1,8,0.49
2013-9-6,73,64,61,65,57,51,84,76,70,30.16,29.99,4,0,12,0.80
2013-9-7,73,66,62,62,59,56,84,78,66,30.15,30.05,2,0,5,0.00
2013-9-8,74,66,61,64,60,55,92,79,63,30.15,30.06,5,1,6,0.00
2013-9-9,75,66,60,64,60,57,92,81,61,30.11,30.01,5,1,9,0.00
2013-9-10,77,67,58,66,61,57,97,82,66,30.04,29.91,8,2,11,0.00
2013-9-11,90,74,62,67,62,57,83,68,40,29.97,29.89,2,0,7,0.00
2013-9-12,81,68,61,64,60,54,83,76,54,30.04,29.93,2,0,7,0.00
2013-9-13,67,64,61,61,58,53,83,81,75,30.02,29.91,2,0,7,0.00
2013-9-14,70,65,62,62,60,56,89,84,77,29.92,29.77,4,0,7,0.00
2013-9-15,66,63,59,61,56,51,84,80,72,29.86,29.75,2,0,10,0.08
2013-9-16,71,63,60,61,57,53,84,80,64,29.97,29.86,3,0,9,0.00
2013-9-17,64,60,58,54,53,51,84,77,68,29.98,29.90,1,0,7,0.00
2013-9-18,69,61,55,55,53,50,84,75,53,30.11,29.98,3,0,11,0.00
2013-9-19,79,62,49,58,51,43,84,70,43,30.08,29.80,1,0,5,0.00
2013-9-20,74,62,54,57,53,49,83,72,46,29.80,29.63,4,0,16,0.05
2013-9-21,68,61,56,58,54,48,95,79,51,29.76,29.69,6,1,9,0.00
2013-9-22,64,58,56,57,53,50,84,82,74,29.80,29.62,1,0,9,0.18
2013-9-23,63,57,52,57,52,46,84,82,75,30.01,29.80,2,0,12,0.02
2013-9-24,63,55,50,51,48,43,85,78,59,30.01,29.88,4,0,13,0.00
2013-9-25,59,53,48,50,48,43,85,81,68,30.08,29.91,5,1,10,0.10
2013-9-26,60,52,44,51,46,38,95,81,63,30.17,30.08,5,1,11,0.01
2013-9-27,58,55,51,54,50,47,91,85,76,30.17,29.90,6,2,14,0.05
2013-9-28,61,57,54,58,55,51,95,92,88,29.90,29.39,7,3,18,0.84
2013-9-29,55,46,0,55,50,48,85,72,79,29.61,0.00,4,0,19,0.27
2013-9-30,57,52,49,52,47,44,86,84,79,29.98,29.50,3,0,14,0.42
2013-10-1,58,51,48,50,46,43,90,82,63,30.16,29.96,7,1,21,0.08
2013-10-2,58,52,50,51,47,43,85,83,73,30.23,30.10,1,0,9,0.27
2013-10-3,56,51,46,49,45,42,94,80,68,30.50,30.23,6,1,8,0.15
2013-10-4,65,50,41,52,44,35,86,79,62,30.54,30.39,0,0,3,0.00
2013-10-5,69,55,45,53,47,38,85,75,50,30.40,30.17,2,0,5,0.00
2013-10-6,73,57,46,56,48,42,98,74,37,30.17,29.91,8,1,10,0.00
2013-10-7,61,55,53,52,50,46,94,82,60,30.06,29.94,5,2,18,0.08
2013-10-8,55,52,47,50,46,43,92,81,66,30.12,30.00,9,1,17,0.03
2013-10-9,56,50,41,47,44,40,95,81,67,30.19,30.00,6,1,8,0.01
2013-10-10,58,52,47,50,46,42,91,81,68,30.12,29.98,1,0,7,0.04
2013-10-11,57,53,50,51,47,44,85,80,75,30.19,30.11,1,0,6,0.59
2013-10-12,56,52,48,50,47,43,85,82,75,30.25,30.11,3,0,9,0.00
2013-10-13,62,50,45,51,44,38,86,81,66,30.41,30.25,1,0,6,0.00
2013-10-14,59,49,42,50,42,36,86,79,71,30.47,30.41,2,0,6,0.00
2013-10-15,61,50,43,51,43,36,86,80,71,30.43,30.22,1,0,3,0.00
2013-10-16,54,51,47,49,46,41,94,83,74,30.25,30.19,2,0,8,0.00
2013-10-17,57,51,47,50,47,42,95,86,78,30.32,30.25,2,0,5,0.00
2013-10-18,57,49,45,51,42,37,95,78,72,30.30,30.19,1,0,6,0.00
2013-10-19,50,48,46,49,45,38,98,90,72,30.25,30.19,5,2,8,0.00
2013-10-20,50,48,46,47,46,45,96,94,90,30.26,30.20,5,3,9,0.18
2013-10-21,52,49,46,48,45,41,97,86,77,30.22,30.15,6,1,10,0.01
2013-10-22,57,49,47,51,44,39,98,82,73,30.17,30.08,5,0,8,0.00
2013-10-23,53,48,45,50,47,45,98,96,90,30.11,30.03,4,1,7,0.01
2013-10-24,51,48,46,46,42,37,97,78,71,30.19,30.08,1,0,5,0.00
2013-10-25,52,50,46,49,45,42,98,85,76,30.37,30.18,3,0,7,0.00
2013-10-26,53,50,47,48,46,45,97,87,80,30.39,30.24,9,2,13,0.01
2013-10-27,57,50,47,50,46,42,93,85,76,30.24,29.95,8,1,12,0.01
2013-10-28,56,50,45,45,41,36,87,72,49,30.00,29.94,5,1,11,0.00
2013-10-29,63,45,36,42,37,33,87,75,46,30.09,29.99,3,0,8,0.00
2013-10-30,58,48,39,48,41,35,86,77,66,30.18,30.08,3,0,12,0.00
2013-10-31,56,52,49,51,48,44,85,84,76,30.30,30.15,2,0,10,0.00
2013-11-1,61,56,52,52,50,47,86,80,65,30.31,29.89,1,0,5,0.00
2013-11-2,54,52,48,50,46,40,86,78,66,29.89,29.54,8,2,30,0.01
2013-11-3,52,46,42,42,40,38,86,78,58,30.15,30.08,3,0,7,0.00
2013-11-4,49,44,37,41,38,32,86,79,65,30.25,30.10,1,0,3,0.00
2013-11-5,55,49,45,49,44,40,86,82,71,30.30,30.06,2,0,10,0.00
2013-11-6,52,48,45,47,44,39,86,84,77,30.36,30.07,1,0,3,0.00
2013-11-7,51,50,48,49,46,44,95,88,81,30.07,29.75,11,3,24,0.01
2013-11-8,54,50,44,46,44,40,86,82,71,30.20,30.02,2,0,9,0.00
2013-11-9,50,46,41,45,41,35,86,83,73,30.20,30.11,2,0,6,0.02
2013-11-10,50,48,47,46,44,43,86,86,84,30.20,30.13,4,2,8,0.00
2013-11-11,56,50,44,49,44,38,86,82,67,30.21,30.04,2,0,6,0.00
2013-11-12,61,53,48,54,48,44,86,83,76,30.42,30.07,1,0,7,0.00
2013-11-13,58,53,49,50,48,45,86,82,72,30.48,30.35,3,0,11,0.00
2013-11-14,51,47,43,46,43,36,86,84,76,30.35,30.10,1,0,7,0.00
2013-11-15,49,46,44,45,42,37,87,85,76,30.11,29.37,2,1,14,0.00
2013-11-16,48,45,40,43,39,36,87,80,67,29.82,29.41,5,1,14,0.00
2013-11-17,53,48,44,47,43,39,86,85,82,29.96,29.82,2,0,11,0.00
2013-11-18,53,51,48,49,45,42,96,81,74,29.96,29.60,5,0,8,0.00
2013-11-19,54,46,41,50,39,27,87,78,55,30.13,29.60,13,2,17,0.02
2013-11-20,43,39,35,34,30,27,83,69,55,30.57,30.13,16,3,21,0.01
2013-11-21,44,37,31,32,30,27,87,76,54,30.72,30.57,10,1,13,0.00
2013-11-22,46,39,34,35,32,28,85,75,52,30.70,30.51,9,2,14,0.00
2013-11-23,50,40,32,39,34,28,87,80,64,30.50,30.25,2,0,5,0.00
2013-11-24,51,40,33,41,36,28,96,87,67,30.31,30.22,2,0,5,0.00
2013-11-25,50,41,34,42,37,31,97,86,67,30.38,30.30,4,0,7,0.00
2013-11-26,51,42,34,43,36,28,87,80,71,30.32,30.14,0,0,2,0.00
2013-11-27,54,46,40,44,41,35,87,81,65,30.14,30.00,1,0,3,0.00
2013-11-28,46,41,37,40,34,30,84,78,72,30.24,30.07,1,0,3,0.00
2013-11-29,48,45,40,46,41,35,96,85,80,30.36,30.23,4,0,8,0.00
2013-11-30,52,48,45,47,44,41,94,86,81,30.39,30.14,6,2,10,0.00
2013-12-1,55,52,46,50,47,39,86,82,74,30.14,29.80,6,2,23,0.00
2013-12-2,46,40,36,39,34,32,87,80,67,30.11,29.85,7,1,17,0.00
2013-12-3,39,37,31,34,29,25,87,74,59,30.37,30.11,14,3,22,0.00
2013-12-4,37,31,26,28,25,22,88,80,59,30.41,30.35,1,0,5,0.00
2013-12-5,34,28,25,25,22,19,84,77,66,30.38,30.27,0,0,3,0.00